South Daytona, Florida
Current Conditions -  °F | °C
As of 6:53 PM on Sunday 21 Dec 2014 (Local Time) from KDAB Reporting Station
Light Rain Light Rain  
Wind Chill: 67°   Ceiling: 11000
Heat Index: 67°   Visibility: 6mi
Dew Point: 65°   Wind: 0mph
Humidity: 93%   Direction: NA
Pressure: 30.04"   Gusts: NA
Location:  29.18°N, 81.01°W
Report Text: KDAB 212353Z 00000KT 6SM -RA BR OVC110 19/18 A3004 RMK AO2 SLP172 P0002 60002 T01940183 10233 20194 53002
Loading
Personal Weather Stations






























Interactive Weather Map New forecast layout! Learn more

10-Day Weather Forecast

Advertisements
Track Severe Weather on mobile